Time;durP1;ratioP1;P1;durP2;ratioP2;P2;SDS_P1;SDS_P2;PMS_P1;PMS_P2;Temp;Humidity;BMP_temperature;BMP_pressure;BME280_temperature;BME280_humidity;BME280_pressure;Samples;Min_cycle;Max_cycle;Signal;HPM_P1;HPM_P2
2023/08/11 00:02:19;;;;;;;20.50;14.73;;;;;;;;;;5036263;28;20045;-82
2023/08/11 00:04:45;;;;;;;19.67;14.57;;;;;;;;;;5035913;28;20063;-82
2023/08/11 00:07:11;;;;;;;19.55;14.52;;;;;;;;;;5053061;28;20037;-82
2023/08/11 00:09:37;;;;;;;18.90;14.98;;;;;;;;;;5054354;28;20132;-81
2023/08/11 00:12:03;;;;;;;21.75;15.18;;;;;;;;;;5052833;28;20098;-81
2023/08/11 00:14:30;;;;;;;20.30;14.43;;;;;;;;;;5053340;28;20036;-82
2023/08/11 00:16:58;;;;;;;20.25;15.80;;;;;;;;;;5052717;28;20049;-82
2023/08/11 00:19:24;;;;;;;19.88;15.95;;;;;;;;;;5053135;28;20041;-82
2023/08/11 00:21:50;;;;;;;22.27;16.00;;;;;;;;;;5053915;28;20067;-82
2023/08/11 00:24:16;;;;;;;19.95;15.63;;;;;;;;;;5052421;28;20095;-82
2023/08/11 00:26:42;;;;;;;19.13;15.13;;;;;;;;;;5025971;28;20049;-82
2023/08/11 00:29:08;;;;;;;20.65;14.85;;;;;;;;;;5050332;28;20032;-82
2023/08/11 00:31:35;;;;;;;21.85;16.63;;;;;;;;;;5052799;28;20045;-82
2023/08/11 00:34:01;;;;;;;22.63;15.95;;;;;;;;;;5052675;28;20533;-82
2023/08/11 00:36:27;;;;;;;23.45;16.20;;;;;;;;;;5052319;28;20037;-82
2023/08/11 00:39:00;;;;;;;20.88;16.65;;;;;;;;;;5051987;28;20044;-82
2023/08/11 00:41:26;;;;;;;24.63;16.30;;;;;;;;;;5052294;28;20040;-82
2023/08/11 00:43:52;;;;;;;22.45;17.15;;;;;;;;;;5036526;28;20037;-81
2023/08/11 00:46:20;;;;;;;23.90;17.45;;;;;;;;;;5021545;28;20481;-82
2023/08/11 00:48:50;;;;;;;22.83;17.98;;;;;;;;;;5053285;28;20043;-81
2023/08/11 00:51:18;;;;;;;24.45;18.80;;;;;;;;;;5052151;28;20087;-82
2023/08/11 00:53:45;;;;;;;25.45;18.80;;;;;;;;;;5052902;28;20040;-81
2023/08/11 00:56:12;;;;;;;23.85;18.98;;;;;;;;;;5052365;28;20037;-82
2023/08/11 00:58:38;;;;;;;23.92;18.77;;;;;;;;;;5034927;28;20041;-82
2023/08/11 01:01:04;;;;;;;26.20;19.13;;;;;;;;;;5053215;28;20024;-82
2023/08/11 01:03:31;;;;;;;24.13;18.92;;;;;;;;;;5052584;28;20393;-82
2023/08/11 01:06:16;;;;;;;26.15;19.02;;;;;;;;;;5053486;28;20037;-82
2023/08/11 01:08:49;;;;;;;25.92;19.42;;;;;;;;;;5051565;28;20048;-82
2023/08/11 01:11:29;;;;;;;25.48;17.90;;;;;;;;;;5053119;28;20401;-82
2023/08/11 01:14:02;;;;;;;26.65;18.52;;;;;;;;;;5051887;28;20068;-74
2023/08/11 01:16:29;;;;;;;24.80;19.25;;;;;;;;;;5052038;28;20396;-74
2023/08/11 01:18:56;;;;;;;25.60;20.30;;;;;;;;;;5052348;28;20041;-73
2023/08/11 01:21:22;;;;;;;23.92;20.33;;;;;;;;;;5053087;28;20069;-73
2023/08/11 01:23:48;;;;;;;25.85;20.27;;;;;;;;;;5034474;28;20088;-73
2023/08/11 01:26:15;;;;;;;23.73;20.23;;;;;;;;;;5052015;28;20489;-73
2023/08/11 01:28:42;;;;;;;24.80;19.92;;;;;;;;;;5053018;28;20045;-74
2023/08/11 01:31:08;;;;;;;28.17;20.05;;;;;;;;;;5050371;28;20040;-73
2023/08/11 01:33:34;;;;;;;25.08;20.83;;;;;;;;;;5042015;28;20509;-74
2023/08/11 01:36:00;;;;;;;27.42;20.73;;;;;;;;;;5031630;28;20053;-73
2023/08/11 01:38:26;;;;;;;26.88;20.92;;;;;;;;;;5040431;28;20051;-73
2023/08/11 01:40:52;;;;;;;23.63;19.30;;;;;;;;;;5034057;28;20520;-73
2023/08/11 01:43:20;;;;;;;28.25;21.50;;;;;;;;;;5031928;28;20041;-73
2023/08/11 01:45:50;;;;;;;27.35;20.55;;;;;;;;;;5045384;28;20033;-73
2023/08/11 01:48:18;;;;;;;24.10;20.35;;;;;;;;;;5033271;28;20120;-74
2023/08/11 01:50:44;;;;;;;24.25;20.42;;;;;;;;;;5039056;28;20041;-73
2023/08/11 01:53:10;;;;;;;24.38;20.33;;;;;;;;;;5047151;28;20103;-74
2023/08/11 01:55:37;;;;;;;23.90;19.85;;;;;;;;;;5034527;28;20128;-73
2023/08/11 01:58:03;;;;;;;25.90;20.23;;;;;;;;;;5052672;28;20045;-74
2023/08/11 02:00:29;;;;;;;27.05;20.33;;;;;;;;;;5050205;28;20033;-73
2023/08/11 02:02:55;;;;;;;24.80;19.95;;;;;;;;;;5049531;28;20128;-73
2023/08/11 02:05:24;;;;;;;28.63;20.42;;;;;;;;;;5050995;28;20045;-73
2023/08/11 02:07:50;;;;;;;24.83;19.60;;;;;;;;;;5051715;28;20047;-74
2023/08/11 02:10:16;;;;;;;27.50;20.17;;;;;;;;;;5050932;28;20512;-74
2023/08/11 02:12:43;;;;;;;25.52;19.88;;;;;;;;;;5051291;28;20041;-74
2023/08/11 02:15:10;;;;;;;25.23;18.95;;;;;;;;;;5052616;28;20040;-74
2023/08/11 02:17:37;;;;;;;23.33;19.33;;;;;;;;;;5031537;28;20434;-75
2023/08/11 02:20:26;;;;;;;24.00;19.70;;;;;;;;;;5029291;28;20114;-74
2023/08/11 02:22:50;;;;;;;26.75;20.13;;;;;;;;;;5037025;28;20096;-73
2023/08/11 02:25:16;;;;;;;23.35;19.05;;;;;;;;;;5034087;28;20048;-74
2023/08/11 02:27:43;;;;;;;23.33;18.85;;;;;;;;;;5034281;28;20072;-74
2023/08/11 02:30:11;;;;;;;24.50;18.80;;;;;;;;;;5051270;28;20063;-74
2023/08/11 02:32:37;;;;;;;22.85;18.20;;;;;;;;;;5050757;28;20044;-74
2023/08/11 02:35:04;;;;;;;22.23;18.38;;;;;;;;;;5051267;28;20091;-73
2023/08/11 02:37:30;;;;;;;22.70;17.75;;;;;;;;;;5032434;28;20045;-74
2023/08/11 02:39:57;;;;;;;21.88;17.30;;;;;;;;;;5031431;28;20036;-74
2023/08/11 02:42:24;;;;;;;24.42;17.85;;;;;;;;;;5034256;28;20048;-74
2023/08/11 02:44:50;;;;;;;21.38;17.30;;;;;;;;;;5045359;28;20124;-74
2023/08/11 02:47:17;;;;;;;20.52;17.48;;;;;;;;;;5067839;28;20511;-73
2023/08/11 02:49:43;;;;;;;22.60;17.92;;;;;;;;;;5044012;28;20041;-74
2023/08/11 02:52:11;;;;;;;24.30;16.48;;;;;;;;;;5044668;28;20464;-73
2023/08/11 02:54:37;;;;;;;20.65;16.48;;;;;;;;;;5052256;28;20113;-73
2023/08/11 02:57:03;;;;;;;19.90;16.20;;;;;;;;;;5053412;28;20044;-73
2023/08/11 02:59:29;;;;;;;21.05;16.70;;;;;;;;;;5054500;28;20052;-74
2023/08/11 03:01:55;;;;;;;19.13;16.20;;;;;;;;;;5037829;28;20370;-73
2023/08/11 03:04:21;;;;;;;21.33;16.92;;;;;;;;;;5054506;28;20388;-73
2023/08/11 03:06:47;;;;;;;21.77;16.15;;;;;;;;;;5053539;28;20321;-73
2023/08/11 03:09:13;;;;;;;19.25;16.02;;;;;;;;;;5034503;28;20042;-73
2023/08/11 03:11:40;;;;;;;21.55;16.60;;;;;;;;;;5050192;28;20501;-73
2023/08/11 03:14:06;;;;;;;19.08;15.77;;;;;;;;;;5054065;28;20041;-73
2023/08/11 03:16:32;;;;;;;22.33;16.73;;;;;;;;;;5055141;28;20048;-73
2023/08/11 03:18:58;;;;;;;21.25;16.02;;;;;;;;;;5054203;28;20495;-74
2023/08/11 03:21:24;;;;;;;20.02;16.42;;;;;;;;;;5036860;28;20044;-73
2023/08/11 03:23:50;;;;;;;23.10;15.93;;;;;;;;;;5036737;28;20055;-73
2023/08/11 03:26:17;;;;;;;20.17;16.13;;;;;;;;;;5054214;28;20560;-74
2023/08/11 03:28:43;;;;;;;18.67;15.60;;;;;;;;;;5054918;28;20041;-73
2023/08/11 03:31:09;;;;;;;21.40;16.13;;;;;;;;;;5036589;28;20056;-73
2023/08/11 03:33:35;;;;;;;17.23;14.88;;;;;;;;;;5036836;28;20049;-73
2023/08/11 03:36:02;;;;;;;20.00;15.50;;;;;;;;;;5053132;28;20037;-73
2023/08/11 03:38:28;;;;;;;18.48;15.35;;;;;;;;;;5053580;28;20134;-73
2023/08/11 03:40:54;;;;;;;21.60;14.95;;;;;;;;;;5053480;28;20068;-82
2023/08/11 03:43:21;;;;;;;18.05;15.13;;;;;;;;;;5036917;28;20052;-82
2023/08/11 03:45:47;;;;;;;17.23;15.00;;;;;;;;;;5053013;28;20045;-82
2023/08/11 03:48:13;;;;;;;23.60;15.93;;;;;;;;;;5053219;28;20044;-82
2023/08/11 03:50:39;;;;;;;17.88;14.80;;;;;;;;;;5053165;28;20037;-80
2023/08/11 03:53:05;;;;;;;19.45;14.73;;;;;;;;;;5040684;28;20037;-81
2023/08/11 03:55:31;;;;;;;20.98;15.13;;;;;;;;;;5016713;28;20049;-81
2023/08/11 03:57:57;;;;;;;18.42;14.60;;;;;;;;;;5048369;28;20076;-81
2023/08/11 04:00:23;;;;;;;18.92;14.98;;;;;;;;;;5053873;28;20037;-83
2023/08/11 04:02:49;;;;;;;20.17;14.80;;;;;;;;;;5036769;28;20124;-81
2023/08/11 04:05:16;;;;;;;19.73;14.60;;;;;;;;;;5046397;28;20183;-82
2023/08/11 04:07:42;;;;;;;17.80;14.77;;;;;;;;;;5047423;28;20397;-82
2023/08/11 04:10:12;;;;;;;23.48;14.35;;;;;;;;;;5047625;28;20383;-82
2023/08/11 04:12:38;;;;;;;20.00;14.30;;;;;;;;;;5045457;28;20051;-82
2023/08/11 04:15:05;;;;;;;16.98;14.13;;;;;;;;;;5036078;28;20083;-82
2023/08/11 04:17:33;;;;;;;16.48;13.48;;;;;;;;;;5052932;28;20049;-83
2023/08/11 04:20:00;;;;;;;16.23;13.80;;;;;;;;;;5053038;28;20095;-81
2023/08/11 04:22:26;;;;;;;20.52;14.35;;;;;;;;;;5052486;28;20060;-81
2023/08/11 04:24:52;;;;;;;17.88;14.52;;;;;;;;;;5052113;28;20045;-82
2023/08/11 04:27:18;;;;;;;19.75;14.00;;;;;;;;;;5053131;28;20485;-82
2023/08/11 04:29:44;;;;;;;19.30;13.75;;;;;;;;;;5053921;28;20385;-80
2023/08/11 04:32:10;;;;;;;18.23;13.30;;;;;;;;;;5036163;28;20040;-84
2023/08/11 04:34:36;;;;;;;17.25;13.13;;;;;;;;;;5053072;28;20041;-83
2023/08/11 04:37:04;;;;;;;16.90;12.45;;;;;;;;;;5052921;28;20044;-82
2023/08/11 04:39:31;;;;;;;18.25;12.45;;;;;;;;;;5036258;28;20524;-83
2023/08/11 04:41:57;;;;;;;15.65;11.90;;;;;;;;;;5053296;28;20044;-83
2023/08/11 04:44:23;;;;;;;17.55;12.02;;;;;;;;;;5052610;28;20037;-82
2023/08/11 04:46:49;;;;;;;14.52;11.35;;;;;;;;;;5052568;28;20493;-81
2023/08/11 04:49:15;;;;;;;15.60;10.82;;;;;;;;;;5036089;28;20505;-83
2023/08/11 04:51:41;;;;;;;14.95;10.18;;;;;;;;;;5053671;28;20493;-82
2023/08/11 04:54:08;;;;;;;13.02;10.40;;;;;;;;;;5051993;28;20080;-83
2023/08/11 04:56:34;;;;;;;13.70;10.50;;;;;;;;;;5052338;28;20064;-80
2023/08/11 04:59:00;;;;;;;14.82;9.75;;;;;;;;;;5033127;28;20132;-82
2023/08/11 05:01:26;;;;;;;13.85;9.93;;;;;;;;;;5040506;28;20092;-81
2023/08/11 05:03:53;;;;;;;12.80;9.43;;;;;;;;;;5052286;28;20098;-82
2023/08/11 05:06:19;;;;;;;13.10;9.30;;;;;;;;;;5053501;28;20036;-80
2023/08/11 05:08:47;;;;;;;11.70;8.43;;;;;;;;;;5051741;28;20044;-82
2023/08/11 05:11:13;;;;;;;10.50;8.65;;;;;;;;;;5051224;28;20586;-79
2023/08/11 05:13:39;;;;;;;14.45;8.45;;;;;;;;;;5045607;28;20049;-80
2023/08/11 05:16:05;;;;;;;13.35;8.77;;;;;;;;;;5047066;28;20041;-83
2023/08/11 05:18:31;;;;;;;12.95;8.32;;;;;;;;;;5051501;28;20037;-80
2023/08/11 05:20:57;;;;;;;10.18;7.50;;;;;;;;;;5053329;28;20421;-82
2023/08/11 05:23:24;;;;;;;11.23;7.78;;;;;;;;;;5051561;28;20045;-80
2023/08/11 05:25:50;;;;;;;10.88;7.95;;;;;;;;;;5052980;28;20041;-83
2023/08/11 05:28:16;;;;;;;9.38;7.53;;;;;;;;;;5033701;28;20049;-80
2023/08/11 05:30:42;;;;;;;11.55;7.57;;;;;;;;;;5039589;28;20051;-82
2023/08/11 05:33:08;;;;;;;10.20;7.40;;;;;;;;;;5050237;28;20036;-83
2023/08/11 05:35:34;;;;;;;10.75;7.50;;;;;;;;;;5052842;28;20071;-84
2023/08/11 05:38:01;;;;;;;10.15;7.60;;;;;;;;;;5085858;28;20045;-84
2023/08/11 05:40:28;;;;;;;9.68;7.53;;;;;;;;;;5068678;28;20049;-81
2023/08/11 05:42:54;;;;;;;11.38;7.57;;;;;;;;;;5032230;28;20034;-73
2023/08/11 05:45:20;;;;;;;11.45;7.32;;;;;;;;;;5031951;28;20037;-73
2023/08/11 05:47:46;;;;;;;12.15;7.05;;;;;;;;;;5056107;28;20064;-73
2023/08/11 05:50:12;;;;;;;12.43;7.28;;;;;;;;;;5060870;28;20037;-73
2023/08/11 05:52:38;;;;;;;10.30;6.90;;;;;;;;;;5050928;28;20048;-73
2023/08/11 05:55:05;;;;;;;11.55;7.18;;;;;;;;;;5039047;28;20127;-73
2023/08/11 05:57:31;;;;;;;14.52;8.32;;;;;;;;;;5031612;28;20048;-74
2023/08/11 05:59:57;;;;;;;10.15;7.03;;;;;;;;;;5034907;28;20068;-74
2023/08/11 06:02:23;;;;;;;10.35;7.30;;;;;;;;;;5051373;28;20083;-73
2023/08/11 06:04:50;;;;;;;7.75;6.47;;;;;;;;;;5051319;28;20037;-72
2023/08/11 06:07:16;;;;;;;9.50;6.60;;;;;;;;;;5051529;28;20519;-73
2023/08/11 06:09:42;;;;;;;9.60;6.63;;;;;;;;;;5052507;28;20128;-73
2023/08/11 06:12:08;;;;;;;9.70;6.85;;;;;;;;;;5033083;28;20041;-73
2023/08/11 06:14:34;;;;;;;8.07;6.50;;;;;;;;;;5029950;28;20090;-73
2023/08/11 06:17:00;;;;;;;10.10;6.25;;;;;;;;;;5043582;28;20045;-73
2023/08/11 06:19:26;;;;;;;10.40;6.78;;;;;;;;;;5047833;28;20073;-74
2023/08/11 06:21:54;;;;;;;7.80;6.20;;;;;;;;;;5044133;28;20083;-74
2023/08/11 06:24:20;;;;;;;8.60;6.15;;;;;;;;;;5084691;28;20088;-74
2023/08/11 06:26:48;;;;;;;10.07;7.00;;;;;;;;;;5036100;28;20502;-73
2023/08/11 06:29:15;;;;;;;9.23;6.82;;;;;;;;;;5084231;28;20068;-73
2023/08/11 06:31:42;;;;;;;11.20;6.20;;;;;;;;;;5037427;28;20041;-74
2023/08/11 06:34:09;;;;;;;10.73;7.03;;;;;;;;;;5051805;28;20523;-74
2023/08/11 06:36:35;;;;;;;9.23;6.45;;;;;;;;;;5052698;28;20045;-74
2023/08/11 06:39:01;;;;;;;10.20;5.90;;;;;;;;;;5047698;28;20506;-74
2023/08/11 06:41:27;;;;;;;8.88;6.40;;;;;;;;;;5084683;28;20045;-74
2023/08/11 06:43:53;;;;;;;8.68;6.32;;;;;;;;;;5049187;28;20116;-74
2023/08/11 06:46:20;;;;;;;11.32;6.05;;;;;;;;;;5067531;28;20130;-74
2023/08/11 06:48:46;;;;;;;8.75;6.15;;;;;;;;;;5052922;28;20056;-74
2023/08/11 06:51:12;;;;;;;9.80;5.95;;;;;;;;;;5050417;28;20037;-74
2023/08/11 06:53:38;;;;;;;9.20;5.93;;;;;;;;;;5054192;28;20131;-75
2023/08/11 06:56:04;;;;;;;8.05;5.38;;;;;;;;;;5034242;28;20037;-75
2023/08/11 06:58:30;;;;;;;8.98;6.00;;;;;;;;;;5050597;28;20051;-75
2023/08/11 07:00:56;;;;;;;9.93;5.63;;;;;;;;;;5048065;28;20524;-75
2023/08/11 07:03:22;;;;;;;7.97;5.85;;;;;;;;;;5054992;28;20033;-75
2023/08/11 07:05:51;;;;;;;8.45;5.30;;;;;;;;;;5055649;28;20041;-75
2023/08/11 07:08:20;;;;;;;8.45;5.85;;;;;;;;;;5055413;28;20416;-75
2023/08/11 07:10:46;;;;;;;6.82;5.32;;;;;;;;;;5052697;28;20037;-75
2023/08/11 07:13:13;;;;;;;11.57;5.80;;;;;;;;;;5055412;28;20494;-75
2023/08/11 07:15:42;;;;;;;9.05;5.38;;;;;;;;;;5054171;28;20041;-75
2023/08/11 07:18:10;;;;;;;7.97;5.00;;;;;;;;;;5052320;28;20090;-75
2023/08/11 07:20:40;;;;;;;7.05;5.22;;;;;;;;;;5075210;28;20048;-76
2023/08/11 07:23:06;;;;;;;7.72;4.68;;;;;;;;;;5053694;28;20072;-75
2023/08/11 07:25:32;;;;;;;10.00;5.40;;;;;;;;;;5036314;28;20036;-75
2023/08/11 07:27:58;;;;;;;7.95;4.65;;;;;;;;;;5053899;28;20545;-75
2023/08/11 07:30:25;;;;;;;7.72;4.70;;;;;;;;;;5053686;28;20119;-76
2023/08/11 07:32:51;;;;;;;7.72;5.38;;;;;;;;;;5037371;28;20095;-76
2023/08/11 07:35:17;;;;;;;12.23;5.30;;;;;;;;;;5035520;28;20067;-75
2023/08/11 07:37:44;;;;;;;8.55;4.82;;;;;;;;;;5036987;28;20254;-76
2023/08/11 07:40:10;;;;;;;6.70;4.80;;;;;;;;;;5036634;28;20041;-76
2023/08/11 07:42:36;;;;;;;7.65;5.05;;;;;;;;;;5053482;28;20131;-76
2023/08/11 07:45:02;;;;;;;7.18;4.85;;;;;;;;;;5042839;28;20047;-76
2023/08/11 07:47:28;;;;;;;8.05;4.95;;;;;;;;;;5069671;28;20036;-76
2023/08/11 07:49:54;;;;;;;7.00;4.82;;;;;;;;;;5038533;28;20041;-76
2023/08/11 07:52:20;;;;;;;8.50;4.78;;;;;;;;;;5043466;28;20124;-76
2023/08/11 07:54:46;;;;;;;6.93;4.72;;;;;;;;;;5036804;28;20052;-77
2023/08/11 07:57:13;;;;;;;7.97;4.18;;;;;;;;;;5052702;28;20494;-76
2023/08/11 07:59:39;;;;;;;9.27;4.78;;;;;;;;;;5038727;28;20107;-76
2023/08/11 08:02:05;;;;;;;8.40;4.80;;;;;;;;;;5051852;28;20033;-76
2023/08/11 08:04:31;;;;;;;6.78;4.38;;;;;;;;;;5028945;28;20043;-77
2023/08/11 08:06:57;;;;;;;6.93;4.40;;;;;;;;;;5042354;28;20041;-76
2023/08/11 08:09:23;;;;;;;6.50;4.45;;;;;;;;;;5041238;28;20037;-78
2023/08/11 08:11:50;;;;;;;8.82;4.00;;;;;;;;;;5038581;28;20401;-76
2023/08/11 08:14:16;;;;;;;6.95;4.13;;;;;;;;;;5044618;28;20124;-76
2023/08/11 08:16:46;;;;;;;7.38;4.50;;;;;;;;;;5050217;28;20045;-76
2023/08/11 08:19:12;;;;;;;6.07;4.15;;;;;;;;;;5054746;28;20077;-77
2023/08/11 08:21:38;;;;;;;7.30;4.28;;;;;;;;;;5051966;28;20044;-77
2023/08/11 08:24:05;;;;;;;9.13;3.85;;;;;;;;;;5032365;28;20076;-77
2023/08/11 08:26:32;;;;;;;21.73;4.97;;;;;;;;;;5045021;28;20048;-76
2023/08/11 08:28:59;;;;;;;10.88;4.50;;;;;;;;;;5043806;28;20436;-77
2023/08/11 08:31:26;;;;;;;6.75;3.65;;;;;;;;;;5048122;28;20125;-77
2023/08/11 08:33:52;;;;;;;10.43;4.80;;;;;;;;;;5069799;28;20060;-76
2023/08/11 08:36:18;;;;;;;10.60;4.57;;;;;;;;;;5052585;28;20099;-76
2023/08/11 08:38:44;;;;;;;8.25;4.50;;;;;;;;;;5047030;28;20040;-77
2023/08/11 08:41:11;;;;;;;6.13;4.05;;;;;;;;;;5037136;28;20038;-76
2023/08/11 08:43:37;;;;;;;9.60;4.50;;;;;;;;;;5034918;28;20068;-77
2023/08/11 08:46:03;;;;;;;7.15;4.50;;;;;;;;;;5036802;28;20040;-76
2023/08/11 08:48:56;;;;;;;7.30;4.82;;;;;;;;;;5042121;28;20041;-77
2023/08/11 08:51:22;;;;;;;7.82;4.65;;;;;;;;;;5031113;28;20085;-77
2023/08/11 08:53:48;;;;;;;9.88;4.80;;;;;;;;;;5034895;28;20038;-77
2023/08/11 08:56:14;;;;;;;6.90;4.40;;;;;;;;;;5046240;28;20517;-77
2023/08/11 08:58:42;;;;;;;8.43;4.47;;;;;;;;;;5042522;28;20045;-80
2023/08/11 09:01:09;;;;;;;7.43;4.45;;;;;;;;;;5053066;28;20115;-78
2023/08/11 09:03:37;;;;;;;7.35;4.25;;;;;;;;;;5053382;28;20489;-77
2023/08/11 09:06:07;;;;;;;8.23;4.22;;;;;;;;;;5051286;28;20056;-77
2023/08/11 09:08:33;;;;;;;8.10;4.38;;;;;;;;;;5052275;28;20477;-76
2023/08/11 09:10:59;;;;;;;11.55;4.45;;;;;;;;;;5051976;28;20137;-77
2023/08/11 09:13:28;;;;;;;9.10;4.00;;;;;;;;;;5053658;28;20116;-77
2023/08/11 09:15:55;;;;;;;9.70;4.50;;;;;;;;;;5034828;28;20083;-77
2023/08/11 09:18:23;;;;;;;7.55;4.00;;;;;;;;;;5052902;28;20041;-76
2023/08/11 09:20:49;;;;;;;9.02;4.43;;;;;;;;;;5052819;28;20041;-76
2023/08/11 09:23:18;;;;;;;6.20;3.83;;;;;;;;;;5052769;28;20455;-77
2023/08/11 09:25:45;;;;;;;10.00;4.00;;;;;;;;;;5050774;28;20045;-77
2023/08/11 09:28:12;;;;;;;10.25;3.97;;;;;;;;;;5034959;28;20048;-76
2023/08/11 09:30:38;;;;;;;6.70;3.63;;;;;;;;;;5051126;28;20083;-76
2023/08/11 09:33:07;;;;;;;5.70;3.38;;;;;;;;;;5052561;28;20431;-80
2023/08/11 09:35:33;;;;;;;7.65;3.70;;;;;;;;;;5034957;28;20045;-77
2023/08/11 09:38:00;;;;;;;6.55;3.75;;;;;;;;;;5052821;28;20056;-77
2023/08/11 09:40:26;;;;;;;7.75;3.35;;;;;;;;;;5051329;28;20037;-77
2023/08/11 09:42:56;;;;;;;7.03;3.28;;;;;;;;;;5051463;28;20048;-76
2023/08/11 09:45:23;;;;;;;6.50;3.38;;;;;;;;;;5051418;28;20045;-77
2023/08/11 09:47:50;;;;;;;5.38;3.40;;;;;;;;;;5052927;28;20037;-77
2023/08/11 09:50:16;;;;;;;7.18;3.20;;;;;;;;;;5051444;28;20044;-77
2023/08/11 09:52:43;;;;;;;8.15;3.40;;;;;;;;;;5050771;28;20040;-77
2023/08/11 09:55:13;;;;;;;9.05;3.63;;;;;;;;;;5051707;28;20041;-77
2023/08/11 09:57:43;;;;;;;7.45;3.88;;;;;;;;;;5052622;28;20045;-76
2023/08/11 10:00:12;;;;;;;6.53;3.40;;;;;;;;;;5055886;28;20075;-76
2023/08/11 10:02:40;;;;;;;7.03;3.67;;;;;;;;;;5037429;28;20036;-76
2023/08/11 10:05:08;;;;;;;6.88;3.85;;;;;;;;;;5055415;28;20043;-76
2023/08/11 10:07:37;;;;;;;6.18;4.00;;;;;;;;;;5037037;28;20477;-78
2023/08/11 10:10:09;;;;;;;4.65;3.33;;;;;;;;;;5035472;28;20477;-76
2023/08/11 10:12:40;;;;;;;6.20;3.17;;;;;;;;;;5049754;28;20043;-77
2023/08/11 10:15:06;;;;;;;8.27;4.20;;;;;;;;;;5050761;28;20052;-76
2023/08/11 10:17:33;;;;;;;8.05;3.53;;;;;;;;;;5045426;28;20052;-76
2023/08/11 10:20:04;;;;;;;5.80;3.40;;;;;;;;;;5069504;28;20056;-76
2023/08/11 10:22:31;;;;;;;7.22;3.80;;;;;;;;;;5050629;28;20064;-77
2023/08/11 10:24:57;;;;;;;7.90;3.70;;;;;;;;;;5037680;28;20061;-78
2023/08/11 10:27:23;;;;;;;7.50;3.35;;;;;;;;;;5057325;28;20578;-77
2023/08/11 10:29:50;;;;;;;5.97;3.50;;;;;;;;;;5054877;28;20072;-77
2023/08/11 10:32:16;;;;;;;6.13;3.22;;;;;;;;;;5044908;28;20053;-77
2023/08/11 10:34:43;;;;;;;6.60;3.80;;;;;;;;;;5052442;28;20044;-76
2023/08/11 10:37:09;;;;;;;6.18;3.63;;;;;;;;;;5050108;28;20441;-76
2023/08/11 10:39:36;;;;;;;7.32;3.90;;;;;;;;;;5049086;28;20558;-77
2023/08/11 10:42:03;;;;;;;8.23;4.63;;;;;;;;;;5031225;28;20033;-73
2023/08/11 10:44:30;;;;;;;7.38;4.15;;;;;;;;;;5054807;28;20040;-73
2023/08/11 10:46:59;;;;;;;5.90;3.60;;;;;;;;;;5050308;28;20043;-73
2023/08/11 10:49:32;;;;;;;8.18;3.60;;;;;;;;;;5079541;28;20053;-80
2023/08/11 10:51:59;;;;;;;7.18;3.60;;;;;;;;;;5047340;28;20037;-79
2023/08/11 10:54:26;;;;;;;7.55;3.42;;;;;;;;;;5055762;28;20072;-80
2023/08/11 10:56:53;;;;;;;6.20;3.15;;;;;;;;;;5042648;28;20095;-81
2023/08/11 10:59:19;;;;;;;8.52;3.50;;;;;;;;;;5069082;28;20037;-80
2023/08/11 11:01:46;;;;;;;5.10;3.83;;;;;;;;;;5053860;28;20029;-79
2023/08/11 11:04:12;;;;;;;8.77;3.42;;;;;;;;;;5056721;28;20060;-75
2023/08/11 11:06:39;;;;;;;8.93;3.30;;;;;;;;;;5054721;28;20037;-77
2023/08/11 11:09:06;;;;;;;7.75;3.38;;;;;;;;;;5052412;28;20036;-77
